createdAt,value
2023-01-21T06:00:50.163Z,-1.25
2023-01-21T06:04:07.695Z,-1.23
2023-01-21T06:06:35.001Z,-1.15
2023-01-21T06:09:08.275Z,-1.16
2023-01-21T06:11:43.935Z,-1.14
2023-01-21T06:14:39.669Z,-1.12
2023-01-21T06:17:11.770Z,-1.07
2023-01-21T06:19:48.460Z,-1.08
2023-01-21T06:22:25.726Z,-1.11
2023-01-21T06:25:39.427Z,-1.06
2023-01-21T06:28:40.141Z,-1.03
2023-01-21T06:31:48.560Z,-1.00
2023-01-21T06:35:04.065Z,-1.03
2023-01-21T06:38:32.395Z,-1.00
2023-01-21T06:41:15.512Z,-0.97
2023-01-21T06:46:22.931Z,-0.84
2023-01-21T06:48:49.874Z,-0.84
2023-01-21T06:51:16.479Z,-0.87
2023-01-21T06:53:43.748Z,-0.85
2023-01-21T06:56:10.358Z,-0.81
2023-01-21T06:58:37.532Z,-0.82
2023-01-21T07:01:04.267Z,-0.76
2023-01-21T07:03:30.983Z,-0.73
2023-01-21T07:05:58.187Z,-0.69
2023-01-21T07:08:24.799Z,-0.69
2023-01-21T07:10:52.011Z,-0.66
2023-01-21T07:13:18.584Z,-0.68
2023-01-21T07:15:45.879Z,-0.67
2023-01-21T07:18:12.512Z,-0.66
2023-01-21T07:20:40.915Z,-0.65
2023-01-21T07:23:07.567Z,-0.64
2023-01-21T07:25:36.429Z,-0.62
2023-01-21T07:28:03.541Z,-0.59
2023-01-21T07:30:30.766Z,-0.59
2023-01-21T07:32:57.353Z,-0.59
2023-01-21T07:35:24.233Z,-0.56
2023-01-21T07:37:50.793Z,-0.58
2023-01-21T07:40:18.344Z,-0.53
2023-01-21T07:42:51.056Z,-0.53
2023-01-21T07:45:19.742Z,-0.54
2023-01-21T07:47:46.473Z,-0.53
2023-01-21T07:50:13.711Z,-0.51
2023-01-21T07:52:40.426Z,-0.50
2023-01-21T07:55:08.262Z,-0.50
2023-01-21T07:57:34.833Z,-0.49
2023-01-21T08:00:02.040Z,-0.50
2023-01-21T08:02:38.404Z,-0.48
2023-01-21T08:05:06.951Z,-0.47
2023-01-21T08:07:33.680Z,-0.42
2023-01-21T08:10:00.969Z,-0.41
2023-01-21T08:12:27.556Z,-0.42
2023-01-21T08:14:54.791Z,-0.42
2023-01-21T08:17:21.379Z,-0.41
2023-01-21T08:19:48.578Z,-0.37
2023-01-21T08:22:15.149Z,-0.36
2023-01-21T08:24:42.028Z,-0.32
2023-01-21T08:27:09.661Z,-0.30
2023-01-21T08:29:36.263Z,-0.30
2023-01-21T08:32:03.556Z,-0.26
2023-01-21T08:34:30.129Z,-0.24
2023-01-21T08:36:57.140Z,-0.20
2023-01-21T08:39:24.873Z,-0.18
2023-01-21T08:41:51.988Z,-0.19
2023-01-21T08:44:18.576Z,-0.18
2023-01-21T08:46:45.808Z,-0.18
2023-01-21T08:49:12.444Z,-0.18
2023-01-21T08:51:39.981Z,-0.16
2023-01-21T08:54:06.839Z,-0.13
2023-01-21T08:56:34.348Z,-0.06
2023-01-21T08:59:02.705Z,-0.08
2023-01-21T09:01:29.737Z,-0.04
2023-01-21T09:03:57.839Z,-0.03
2023-01-21T09:06:29.923Z,-0.02
2023-01-21T09:08:56.856Z,-0.01
2023-01-21T09:11:24.373Z,-0.04
2023-01-21T09:13:51.444Z,-0.02
2023-01-21T09:16:22.781Z,-0.02
2023-01-21T09:18:50.000Z,-0.02
2023-01-21T09:21:16.693Z,-0.05
2023-01-21T09:23:44.541Z,-0.04
2023-01-21T09:26:18.408Z,-0.02
2023-01-21T09:28:51.511Z,-0.02
2023-01-21T09:31:21.484Z,-0.04
2023-01-21T09:33:51.475Z,-0.08
2023-01-21T09:36:19.712Z,-0.04
2023-01-21T09:38:48.050Z,0.01
2023-01-21T09:41:36.251Z,0.01
2023-01-21T09:44:12.606Z,0.04
2023-01-21T09:46:44.617Z,0.04
2023-01-21T09:49:18.966Z,0.03
2023-01-21T09:52:22.160Z,0.04
2023-01-21T09:54:49.459Z,0.03
2023-01-21T09:57:21.924Z,0.07
2023-01-21T09:59:54.933Z,0.08
2023-01-21T10:03:00.862Z,0.14
2023-01-21T10:06:01.000Z,0.13
2023-01-21T10:08:37.118Z,0.16
2023-01-21T10:11:23.796Z,0.16
2023-01-21T10:14:24.466Z,0.19
2023-01-21T10:17:06.246Z,0.23
2023-01-21T10:19:39.435Z,0.28
2023-01-21T10:22:12.641Z,0.32
2023-01-21T10:24:46.735Z,0.36
2023-01-21T10:27:18.214Z,0.38
2023-01-21T10:29:48.300Z,0.38
2023-01-21T10:32:20.938Z,0.40
2023-01-21T10:34:53.210Z,0.41
2023-01-21T10:37:48.153Z,0.37
2023-01-21T10:40:44.486Z,0.37
2023-01-21T10:43:39.416Z,0.42
2023-01-21T10:46:31.494Z,0.47
2023-01-21T10:49:03.220Z,0.51
2023-01-21T10:51:45.430Z,0.52
2023-01-21T10:54:38.744Z,0.50
2023-01-21T10:57:31.504Z,0.50
2023-01-21T11:00:02.563Z,0.50
2023-01-21T11:02:32.027Z,0.53
2023-01-21T11:05:05.032Z,0.57
2023-01-21T11:07:39.872Z,0.58
2023-01-21T11:10:07.965Z,0.59
2023-01-21T11:12:34.662Z,0.59
2023-01-21T11:15:10.831Z,0.62
2023-01-21T11:17:40.169Z,0.62
2023-01-21T11:20:27.667Z,0.65
2023-01-21T11:22:54.596Z,0.66
2023-01-21T11:25:41.520Z,0.69
2023-01-21T11:28:30.396Z,0.62
2023-01-21T11:31:26.908Z,0.56
2023-01-21T11:33:55.923Z,0.58
2023-01-21T11:36:22.523Z,0.61
2023-01-21T11:39:02.333Z,0.66
2023-01-21T11:41:29.276Z,0.68
2023-01-21T11:44:10.392Z,0.67
2023-01-21T11:46:39.178Z,0.67
2023-01-21T11:49:09.365Z,0.69
2023-01-21T11:51:38.051Z,0.68
2023-01-21T11:54:12.175Z,0.67
2023-01-21T11:56:39.359Z,0.68
2023-01-21T11:59:24.237Z,0.69
2023-01-21T12:02:35.274Z,0.74
2023-01-21T12:05:09.518Z,0.77
2023-01-21T12:07:39.987Z,0.81
2023-01-21T12:10:13.061Z,0.84
2023-01-21T12:12:52.896Z,0.89
2023-01-21T12:15:29.069Z,0.90
2023-01-21T12:18:12.490Z,0.86
2023-01-21T12:20:58.590Z,0.83
2023-01-21T12:23:40.714Z,0.80
2023-01-21T12:26:41.325Z,0.81
2023-01-21T12:29:22.000Z,0.80
2023-01-21T12:32:01.495Z,0.82
2023-01-21T12:34:52.373Z,0.86
2023-01-21T12:37:38.256Z,0.83
2023-01-21T12:40:19.794Z,0.86
2023-01-21T12:42:53.298Z,0.84
2023-01-21T12:45:31.580Z,0.85
2023-01-21T12:48:10.247Z,0.90
2023-01-21T12:50:45.750Z,0.95
2023-01-21T12:53:15.349Z,0.98
2023-01-21T12:56:09.475Z,1.02
2023-01-21T12:58:41.158Z,1.03
2023-01-21T13:01:14.691Z,1.04
2023-01-21T13:04:04.133Z,0.96
2023-01-21T13:06:54.860Z,0.94
2023-01-21T13:09:34.033Z,0.93
2023-01-21T13:12:22.573Z,0.90
2023-01-21T13:15:02.089Z,0.92
2023-01-21T13:17:33.502Z,0.94
2023-01-21T13:20:00.826Z,0.94
2023-01-21T13:23:19.097Z,0.96
2023-01-21T13:26:01.371Z,1.01
2023-01-21T13:28:39.298Z,1.00
2023-01-21T13:31:20.162Z,1.00
2023-01-21T13:34:12.675Z,1.03
2023-01-21T13:36:47.144Z,1.02
2023-01-21T13:39:29.199Z,1.02
2023-01-21T13:42:05.116Z,1.08
2023-01-21T13:44:44.383Z,1.09
2023-01-21T13:47:29.712Z,1.11
2023-01-21T13:50:03.064Z,1.09
2023-01-21T13:52:35.180Z,1.08
2023-01-21T13:55:14.195Z,1.10
2023-01-21T13:58:01.024Z,1.09
2023-01-21T14:00:34.062Z,1.12
2023-01-21T14:03:08.528Z,1.17
2023-01-21T14:05:41.995Z,1.16
2023-01-21T14:08:24.638Z,1.13
2023-01-21T14:11:10.270Z,1.14
2023-01-21T14:13:36.777Z,1.15
2023-01-21T14:16:41.021Z,1.13
2023-01-21T14:19:25.948Z,1.12
2023-01-21T14:22:06.959Z,1.11
2023-01-21T14:24:52.993Z,1.15
2023-01-21T14:27:34.644Z,1.16
2023-01-21T14:30:15.946Z,1.15
2023-01-21T14:32:51.088Z,1.12
2023-01-21T14:35:34.312Z,1.14
2023-01-21T14:38:28.584Z,1.14
2023-01-21T14:41:10.459Z,1.08
2023-01-21T14:43:37.828Z,1.03
2023-01-21T14:46:28.335Z,1.01
2023-01-21T14:49:00.150Z,1.03
2023-01-21T14:51:30.712Z,1.00
2023-01-21T14:54:01.971Z,0.95
2023-01-21T14:56:35.661Z,0.96
2023-01-21T14:59:09.121Z,0.97
2023-01-21T15:01:44.014Z,0.94
2023-01-21T15:04:27.920Z,0.93
2023-01-21T15:07:09.590Z,0.93
2023-01-21T15:09:44.028Z,0.91
2023-01-21T15:12:30.529Z,0.85
2023-01-21T15:15:00.502Z,0.82
2023-01-21T15:17:59.884Z,0.82
2023-01-21T15:21:00.943Z,0.77
2023-01-21T15:23:28.263Z,0.78
2023-01-21T15:26:11.819Z,0.76
2023-01-21T15:28:51.932Z,0.74
2023-01-21T15:31:19.205Z,0.73
2023-01-21T15:33:57.526Z,0.72
2023-01-21T15:36:29.529Z,0.71
2023-01-21T15:39:02.011Z,0.71
2023-01-21T15:41:39.404Z,0.60
2023-01-21T15:44:26.493Z,0.61
2023-01-21T15:47:19.408Z,0.63
2023-01-21T15:50:14.091Z,0.59
2023-01-21T15:53:13.638Z,0.60
2023-01-21T15:56:06.686Z,0.58
2023-01-21T15:58:52.231Z,0.57
2023-01-21T16:01:34.185Z,0.60
2023-01-21T16:04:20.490Z,0.59
2023-01-21T16:07:07.861Z,0.57
2023-01-21T16:09:59.079Z,0.55
2023-01-21T16:12:37.065Z,0.56
2023-01-21T16:15:35.932Z,0.52
2023-01-21T16:18:23.284Z,0.51
2023-01-21T16:20:53.564Z,0.48
2023-01-21T16:23:22.889Z,0.46
2023-01-21T16:25:52.087Z,0.47
2023-01-21T16:28:20.610Z,0.48
2023-01-21T16:30:59.358Z,0.46
2023-01-21T16:33:26.216Z,0.46
2023-01-21T16:35:57.067Z,0.45
2023-01-21T16:38:29.215Z,0.42
2023-01-21T16:41:08.545Z,0.39
2023-01-21T16:43:36.583Z,0.36
2023-01-21T16:46:06.107Z,0.37
2023-01-21T16:48:34.117Z,0.36
2023-01-21T16:51:01.807Z,0.31
2023-01-21T16:53:28.380Z,0.31
2023-01-21T16:56:00.152Z,0.29
2023-01-21T16:58:32.565Z,0.27
2023-01-21T17:01:06.118Z,0.24
2023-01-21T17:03:33.416Z,0.24
2023-01-21T17:06:07.313Z,0.24
2023-01-21T17:08:34.952Z,0.26
2023-01-21T17:11:07.644Z,0.26
2023-01-21T17:13:37.503Z,0.24
2023-01-21T17:16:05.897Z,0.23
2023-01-21T17:18:39.125Z,0.20
2023-01-21T17:21:15.932Z,0.20
2023-01-21T17:23:55.288Z,0.22
2023-01-21T17:26:29.764Z,0.22
2023-01-21T17:29:08.227Z,0.23
2023-01-21T17:31:38.744Z,0.23
2023-01-21T17:34:27.409Z,0.22
2023-01-21T17:36:55.322Z,0.18
2023-01-21T17:39:58.890Z,0.19
2023-01-21T17:42:30.395Z,0.18
2023-01-21T17:45:04.755Z,0.16
2023-01-21T17:47:35.236Z,0.16
2023-01-21T17:50:12.556Z,0.17
2023-01-21T17:52:39.662Z,0.17
2023-01-21T17:55:28.320Z,0.12
2023-01-21T17:57:55.134Z,0.13
2023-01-21T18:00:30.641Z,0.16
2023-01-21T18:02:58.209Z,0.20
2023-01-21T18:05:25.713Z,0.22
2023-01-21T18:07:52.346Z,0.24
2023-01-21T18:10:24.649Z,0.22
2023-01-21T18:12:51.675Z,0.22
2023-01-21T18:15:20.861Z,0.23
2023-01-21T18:17:51.387Z,0.23
2023-01-21T18:20:21.335Z,0.24
2023-01-21T18:22:48.101Z,0.16
2023-01-21T18:25:16.891Z,0.16
2023-01-21T18:27:45.866Z,0.15
2023-01-21T18:30:17.886Z,0.17
2023-01-21T18:32:45.523Z,0.19
2023-01-21T18:35:15.767Z,0.19
2023-01-21T18:37:42.501Z,0.19
2023-01-21T18:40:16.046Z,0.25
2023-01-21T18:42:42.611Z,0.26
2023-01-21T18:45:21.792Z,0.22
2023-01-21T18:47:49.867Z,0.26
2023-01-21T18:50:28.618Z,0.27
2023-01-21T18:52:55.825Z,0.27
2023-01-21T18:55:27.923Z,0.27
2023-01-21T18:57:56.845Z,0.27
2023-01-21T19:00:32.439Z,0.29
2023-01-21T19:03:01.015Z,0.26
2023-01-21T19:05:34.228Z,0.26
2023-01-21T19:08:01.805Z,0.27
2023-01-21T19:10:29.068Z,0.21
2023-01-21T19:12:55.623Z,0.20
2023-01-21T19:15:25.225Z,0.21
2023-01-21T19:17:52.385Z,0.17
2023-01-21T19:20:22.257Z,0.15
2023-01-21T19:22:49.908Z,0.15
2023-01-21T19:25:18.869Z,0.15
2023-01-21T19:27:51.807Z,0.15
2023-01-21T19:30:26.031Z,0.18
2023-01-21T19:32:54.034Z,0.17
2023-01-21T19:35:28.246Z,0.14
2023-01-21T19:37:55.350Z,0.12
2023-01-21T19:40:24.888Z,0.15
2023-01-21T19:42:51.776Z,0.17
2023-01-21T19:45:20.096Z,0.19
2023-01-21T19:47:51.506Z,0.19
2023-01-21T19:50:21.851Z,0.23
2023-01-21T19:52:50.298Z,0.27
2023-01-21T19:55:25.942Z,0.27
2023-01-21T19:58:04.385Z,0.29
2023-01-21T20:00:34.500Z,0.30
2023-01-21T20:03:01.318Z,0.33
2023-01-21T20:05:33.906Z,0.34
2023-01-21T20:08:01.716Z,0.35
2023-01-21T20:10:30.338Z,0.36
2023-01-21T20:12:57.199Z,0.35
2023-01-21T20:15:30.437Z,0.36
2023-01-21T20:18:00.062Z,0.40
2023-01-21T20:20:30.462Z,0.41
2023-01-21T20:22:57.592Z,0.39
2023-01-21T20:25:31.942Z,0.38
2023-01-21T20:28:00.410Z,0.37
2023-01-21T20:30:32.521Z,0.39
2023-01-21T20:33:01.425Z,0.38
2023-01-21T20:35:28.669Z,0.41
2023-01-21T20:37:56.689Z,0.43
2023-01-21T20:40:29.320Z,0.44
2023-01-21T20:42:57.325Z,0.43
2023-01-21T20:45:30.870Z,0.44
2023-01-21T20:47:59.800Z,0.42
2023-01-21T20:50:35.560Z,0.38
2023-01-21T20:53:03.420Z,0.40
2023-01-21T20:55:31.394Z,0.40
2023-01-21T20:57:58.146Z,0.39
2023-01-21T21:00:27.710Z,0.38
2023-01-21T21:02:57.646Z,0.38
2023-01-21T21:05:27.561Z,0.40
2023-01-21T21:07:54.798Z,0.42
2023-01-21T21:10:27.360Z,0.38
2023-01-21T21:12:55.417Z,0.38
2023-01-21T21:15:22.986Z,0.34
2023-01-21T21:17:49.695Z,0.30
2023-01-21T21:20:24.084Z,0.30
2023-01-21T21:22:50.862Z,0.32
2023-01-21T21:25:20.509Z,0.31
2023-01-21T21:27:47.434Z,0.27
